sensor_id;sensor_type;location;lat;lon;timestamp;P1;durP1;ratioP1;P2;durP2;ratioP2
74957;SDS011;63741;42.624;26.276;2022-12-18T00:01:16;4.72;;;2.40;;
74957;SDS011;63741;42.624;26.276;2022-12-18T00:03:47;5.47;;;2.70;;
74957;SDS011;63741;42.624;26.276;2022-12-18T00:06:18;3.47;;;2.65;;
74957;SDS011;63741;42.624;26.276;2022-12-18T00:08:45;3.92;;;2.72;;
74957;SDS011;63741;42.624;26.276;2022-12-18T00:11:14;4.03;;;2.72;;
74957;SDS011;63741;42.624;26.276;2022-12-18T00:13:46;4.07;;;2.53;;
74957;SDS011;63741;42.624;26.276;2022-12-18T00:16:15;5.15;;;2.80;;
74957;SDS011;63741;42.624;26.276;2022-12-18T00:18:47;4.05;;;2.53;;
74957;SDS011;63741;42.624;26.276;2022-12-18T00:21:15;4.35;;;2.80;;
74957;SDS011;63741;42.624;26.276;2022-12-18T00:23:43;4.35;;;3.03;;
74957;SDS011;63741;42.624;26.276;2022-12-18T00:26:14;4.18;;;2.78;;
74957;SDS011;63741;42.624;26.276;2022-12-18T00:28:46;3.25;;;2.30;;
74957;SDS011;63741;42.624;26.276;2022-12-18T00:31:17;4.60;;;2.90;;
74957;SDS011;63741;42.624;26.276;2022-12-18T00:33:46;4.10;;;2.88;;
74957;SDS011;63741;42.624;26.276;2022-12-18T00:36:16;3.28;;;2.60;;
74957;SDS011;63741;42.624;26.276;2022-12-18T00:38:45;4.18;;;2.67;;
74957;SDS011;63741;42.624;26.276;2022-12-18T00:41:17;4.13;;;2.65;;
74957;SDS011;63741;42.624;26.276;2022-12-18T00:44:05;5.82;;;2.70;;
74957;SDS011;63741;42.624;26.276;2022-12-18T00:46:33;4.05;;;2.53;;
74957;SDS011;63741;42.624;26.276;2022-12-18T00:49:00;5.43;;;2.70;;
74957;SDS011;63741;42.624;26.276;2022-12-18T00:51:28;3.45;;;2.40;;
74957;SDS011;63741;42.624;26.276;2022-12-18T00:53:55;3.25;;;2.05;;
74957;SDS011;63741;42.624;26.276;2022-12-18T00:56:22;5.15;;;2.58;;
74957;SDS011;63741;42.624;26.276;2022-12-18T00:58:50;5.15;;;2.70;;
74957;SDS011;63741;42.624;26.276;2022-12-18T01:01:17;4.82;;;2.38;;
74957;SDS011;63741;42.624;26.276;2022-12-18T01:03:44;4.03;;;2.63;;
74957;SDS011;63741;42.624;26.276;2022-12-18T01:06:15;4.22;;;2.30;;
74957;SDS011;63741;42.624;26.276;2022-12-18T01:08:43;3.90;;;2.40;;
74957;SDS011;63741;42.624;26.276;2022-12-18T01:11:15;3.72;;;2.50;;
74957;SDS011;63741;42.624;26.276;2022-12-18T01:13:44;3.97;;;2.30;;
74957;SDS011;63741;42.624;26.276;2022-12-18T01:16:12;3.95;;;2.28;;
74957;SDS011;63741;42.624;26.276;2022-12-18T01:18:40;4.55;;;2.95;;
74957;SDS011;63741;42.624;26.276;2022-12-18T01:21:08;5.07;;;2.97;;
74957;SDS011;63741;42.624;26.276;2022-12-18T01:23:36;4.38;;;2.88;;
74957;SDS011;63741;42.624;26.276;2022-12-18T01:26:08;6.30;;;4.30;;
74957;SDS011;63741;42.624;26.276;2022-12-18T01:28:37;5.50;;;3.60;;
74957;SDS011;63741;42.624;26.276;2022-12-18T01:31:20;7.75;;;3.53;;
74957;SDS011;63741;42.624;26.276;2022-12-18T01:33:55;6.47;;;3.70;;
74957;SDS011;63741;42.624;26.276;2022-12-18T01:38:49;6.32;;;4.22;;
74957;SDS011;63741;42.624;26.276;2022-12-18T01:41:19;6.82;;;3.75;;
74957;SDS011;63741;42.624;26.276;2022-12-18T01:43:52;6.45;;;3.83;;
74957;SDS011;63741;42.624;26.276;2022-12-18T01:46:24;6.80;;;4.20;;
74957;SDS011;63741;42.624;26.276;2022-12-18T01:48:58;5.70;;;3.88;;
74957;SDS011;63741;42.624;26.276;2022-12-18T01:51:28;10.40;;;5.53;;
74957;SDS011;63741;42.624;26.276;2022-12-18T01:53:57;8.55;;;5.00;;
74957;SDS011;63741;42.624;26.276;2022-12-18T01:56:25;9.15;;;5.25;;
74957;SDS011;63741;42.624;26.276;2022-12-18T01:58:54;12.40;;;5.72;;
74957;SDS011;63741;42.624;26.276;2022-12-18T02:01:26;8.50;;;5.15;;
74957;SDS011;63741;42.624;26.276;2022-12-18T02:04:21;7.45;;;5.03;;
74957;SDS011;63741;42.624;26.276;2022-12-18T02:06:54;8.93;;;5.18;;
74957;SDS011;63741;42.624;26.276;2022-12-18T02:09:56;7.20;;;4.97;;
74957;SDS011;63741;42.624;26.276;2022-12-18T02:12:28;9.75;;;5.40;;
74957;SDS011;63741;42.624;26.276;2022-12-18T02:15:36;8.48;;;5.20;;
74957;SDS011;63741;42.624;26.276;2022-12-18T02:18:12;8.15;;;5.15;;
74957;SDS011;63741;42.624;26.276;2022-12-18T02:20:47;6.60;;;4.55;;
74957;SDS011;63741;42.624;26.276;2022-12-18T02:28:59;6.45;;;4.20;;
74957;SDS011;63741;42.624;26.276;2022-12-18T02:31:32;6.07;;;3.72;;
74957;SDS011;63741;42.624;26.276;2022-12-18T02:34:05;6.65;;;3.47;;
74957;SDS011;63741;42.624;26.276;2022-12-18T02:36:38;5.15;;;2.67;;
74957;SDS011;63741;42.624;26.276;2022-12-18T02:39:10;5.50;;;2.97;;
74957;SDS011;63741;42.624;26.276;2022-12-18T02:41:46;6.05;;;2.65;;
74957;SDS011;63741;42.624;26.276;2022-12-18T02:44:14;7.60;;;3.10;;
74957;SDS011;63741;42.624;26.276;2022-12-18T02:46:45;4.18;;;3.05;;
74957;SDS011;63741;42.624;26.276;2022-12-18T02:52:05;6.63;;;2.78;;
74957;SDS011;63741;42.624;26.276;2022-12-18T02:54:49;6.25;;;2.90;;
74957;SDS011;63741;42.624;26.276;2022-12-18T03:00:11;4.65;;;2.70;;
74957;SDS011;63741;42.624;26.276;2022-12-18T03:05:30;5.53;;;3.10;;
74957;SDS011;63741;42.624;26.276;2022-12-18T03:08:06;4.97;;;2.67;;
74957;SDS011;63741;42.624;26.276;2022-12-18T03:10:39;4.35;;;2.38;;
74957;SDS011;63741;42.624;26.276;2022-12-18T03:15:47;6.40;;;2.80;;
74957;SDS011;63741;42.624;26.276;2022-12-18T03:18:19;5.45;;;2.65;;
74957;SDS011;63741;42.624;26.276;2022-12-18T03:20:51;4.32;;;2.60;;
74957;SDS011;63741;42.624;26.276;2022-12-18T03:23:22;3.65;;;2.40;;
74957;SDS011;63741;42.624;26.276;2022-12-18T03:28:28;3.13;;;2.28;;
74957;SDS011;63741;42.624;26.276;2022-12-18T03:31:01;4.07;;;2.70;;
74957;SDS011;63741;42.624;26.276;2022-12-18T03:33:34;2.97;;;2.15;;
74957;SDS011;63741;42.624;26.276;2022-12-18T03:36:07;4.65;;;2.28;;
74957;SDS011;63741;42.624;26.276;2022-12-18T03:38:34;3.97;;;2.40;;
74957;SDS011;63741;42.624;26.276;2022-12-18T03:41:18;6.80;;;2.90;;
74957;SDS011;63741;42.624;26.276;2022-12-18T03:44:52;6.05;;;2.40;;
74957;SDS011;63741;42.624;26.276;2022-12-18T03:49:53;3.55;;;2.00;;
74957;SDS011;63741;42.624;26.276;2022-12-18T03:52:35;4.53;;;2.58;;
74957;SDS011;63741;42.624;26.276;2022-12-18T03:55:06;4.13;;;2.65;;
74957;SDS011;63741;42.624;26.276;2022-12-18T03:57:36;4.80;;;2.47;;
74957;SDS011;63741;42.624;26.276;2022-12-18T04:00:14;4.28;;;2.67;;
74957;SDS011;63741;42.624;26.276;2022-12-18T04:02:57;4.25;;;2.92;;
74957;SDS011;63741;42.624;26.276;2022-12-18T04:05:38;4.68;;;2.60;;
74957;SDS011;63741;42.624;26.276;2022-12-18T04:08:06;4.80;;;2.90;;
74957;SDS011;63741;42.624;26.276;2022-12-18T04:10:37;4.20;;;2.70;;
74957;SDS011;63741;42.624;26.276;2022-12-18T04:13:04;5.13;;;2.67;;
74957;SDS011;63741;42.624;26.276;2022-12-18T04:15:32;4.38;;;2.60;;
74957;SDS011;63741;42.624;26.276;2022-12-18T04:18:03;3.63;;;2.30;;
74957;SDS011;63741;42.624;26.276;2022-12-18T04:20:37;3.70;;;2.53;;
74957;SDS011;63741;42.624;26.276;2022-12-18T04:23:04;5.43;;;3.15;;
74957;SDS011;63741;42.624;26.276;2022-12-18T04:25:32;4.20;;;2.90;;
74957;SDS011;63741;42.624;26.276;2022-12-18T04:28:06;5.50;;;3.20;;
74957;SDS011;63741;42.624;26.276;2022-12-18T04:30:34;4.68;;;2.92;;
74957;SDS011;63741;42.624;26.276;2022-12-18T04:33:01;5.40;;;3.20;;
74957;SDS011;63741;42.624;26.276;2022-12-18T04:35:29;4.35;;;2.70;;
74957;SDS011;63741;42.624;26.276;2022-12-18T04:37:56;5.43;;;2.80;;
74957;SDS011;63741;42.624;26.276;2022-12-18T04:40:23;4.57;;;2.80;;
74957;SDS011;63741;42.624;26.276;2022-12-18T04:42:51;4.80;;;3.25;;
74957;SDS011;63741;42.624;26.276;2022-12-18T04:45:18;5.38;;;3.25;;
74957;SDS011;63741;42.624;26.276;2022-12-18T04:47:45;6.75;;;3.92;;
74957;SDS011;63741;42.624;26.276;2022-12-18T04:50:11;7.10;;;3.72;;
74957;SDS011;63741;42.624;26.276;2022-12-18T04:52:38;10.02;;;5.53;;
74957;SDS011;63741;42.624;26.276;2022-12-18T04:55:05;10.02;;;6.07;;
74957;SDS011;63741;42.624;26.276;2022-12-18T04:57:32;10.23;;;5.18;;
74957;SDS011;63741;42.624;26.276;2022-12-18T04:59:59;4.40;;;3.15;;
74957;SDS011;63741;42.624;26.276;2022-12-18T05:02:26;6.53;;;3.95;;
74957;SDS011;63741;42.624;26.276;2022-12-18T05:04:53;22.40;;;14.90;;
74957;SDS011;63741;42.624;26.276;2022-12-18T05:07:20;7.80;;;4.30;;
74957;SDS011;63741;42.624;26.276;2022-12-18T05:09:47;14.40;;;9.00;;
74957;SDS011;63741;42.624;26.276;2022-12-18T05:12:14;7.43;;;5.70;;
74957;SDS011;63741;42.624;26.276;2022-12-18T05:14:41;9.57;;;6.28;;
74957;SDS011;63741;42.624;26.276;2022-12-18T05:17:08;14.50;;;12.07;;
74957;SDS011;63741;42.624;26.276;2022-12-18T05:19:34;7.55;;;3.42;;
74957;SDS011;63741;42.624;26.276;2022-12-18T05:22:01;7.68;;;6.53;;
74957;SDS011;63741;42.624;26.276;2022-12-18T05:24:28;6.03;;;5.28;;
74957;SDS011;63741;42.624;26.276;2022-12-18T05:26:55;5.35;;;4.03;;
74957;SDS011;63741;42.624;26.276;2022-12-18T05:29:22;5.47;;;3.17;;
74957;SDS011;63741;42.624;26.276;2022-12-18T05:31:49;5.05;;;4.22;;
74957;SDS011;63741;42.624;26.276;2022-12-18T05:34:16;5.57;;;3.72;;
74957;SDS011;63741;42.624;26.276;2022-12-18T05:36:43;4.95;;;3.28;;
74957;SDS011;63741;42.624;26.276;2022-12-18T05:39:10;5.38;;;4.28;;
74957;SDS011;63741;42.624;26.276;2022-12-18T05:41:37;6.22;;;4.15;;
74957;SDS011;63741;42.624;26.276;2022-12-18T05:44:04;6.57;;;4.10;;
74957;SDS011;63741;42.624;26.276;2022-12-18T05:46:31;4.45;;;3.25;;
74957;SDS011;63741;42.624;26.276;2022-12-18T05:48:59;17.05;;;7.63;;
74957;SDS011;63741;42.624;26.276;2022-12-18T05:51:27;4.18;;;2.97;;
74957;SDS011;63741;42.624;26.276;2022-12-18T05:53:54;7.95;;;4.38;;
74957;SDS011;63741;42.624;26.276;2022-12-18T05:56:22;5.93;;;3.63;;
74957;SDS011;63741;42.624;26.276;2022-12-18T05:58:52;5.43;;;3.78;;
74957;SDS011;63741;42.624;26.276;2022-12-18T06:01:22;6.15;;;4.20;;
74957;SDS011;63741;42.624;26.276;2022-12-18T06:03:51;5.03;;;3.35;;
74957;SDS011;63741;42.624;26.276;2022-12-18T06:06:20;5.00;;;3.10;;
74957;SDS011;63741;42.624;26.276;2022-12-18T06:08:49;4.88;;;3.08;;
74957;SDS011;63741;42.624;26.276;2022-12-18T06:11:18;5.00;;;3.30;;
74957;SDS011;63741;42.624;26.276;2022-12-18T06:13:51;4.85;;;3.25;;
74957;SDS011;63741;42.624;26.276;2022-12-18T06:16:25;4.70;;;2.70;;
74957;SDS011;63741;42.624;26.276;2022-12-18T06:18:52;7.13;;;3.08;;
74957;SDS011;63741;42.624;26.276;2022-12-18T06:21:20;3.97;;;2.80;;
74957;SDS011;63741;42.624;26.276;2022-12-18T06:23:47;4.18;;;2.88;;
74957;SDS011;63741;42.624;26.276;2022-12-18T06:26:14;5.20;;;3.20;;
74957;SDS011;63741;42.624;26.276;2022-12-18T06:28:41;4.13;;;2.90;;
74957;SDS011;63741;42.624;26.276;2022-12-18T06:31:08;9.00;;;4.97;;
74957;SDS011;63741;42.624;26.276;2022-12-18T06:33:36;4.32;;;2.55;;
74957;SDS011;63741;42.624;26.276;2022-12-18T06:36:06;5.57;;;3.90;;
74957;SDS011;63741;42.624;26.276;2022-12-18T06:38:36;5.47;;;3.53;;
74957;SDS011;63741;42.624;26.276;2022-12-18T06:41:09;4.68;;;3.00;;
74957;SDS011;63741;42.624;26.276;2022-12-18T06:43:38;8.07;;;6.53;;
74957;SDS011;63741;42.624;26.276;2022-12-18T06:46:05;5.28;;;3.28;;
74957;SDS011;63741;42.624;26.276;2022-12-18T06:48:32;5.47;;;3.17;;
74957;SDS011;63741;42.624;26.276;2022-12-18T06:51:00;5.43;;;3.30;;
74957;SDS011;63741;42.624;26.276;2022-12-18T06:53:27;3.95;;;2.45;;
74957;SDS011;63741;42.624;26.276;2022-12-18T06:56:04;5.82;;;3.50;;
74957;SDS011;63741;42.624;26.276;2022-12-18T06:58:36;4.80;;;2.90;;
74957;SDS011;63741;42.624;26.276;2022-12-18T07:01:05;6.15;;;3.97;;
74957;SDS011;63741;42.624;26.276;2022-12-18T07:03:34;4.45;;;3.10;;
74957;SDS011;63741;42.624;26.276;2022-12-18T07:06:01;7.35;;;3.90;;
74957;SDS011;63741;42.624;26.276;2022-12-18T07:08:29;8.13;;;3.33;;
74957;SDS011;63741;42.624;26.276;2022-12-18T07:10:57;4.35;;;2.30;;
74957;SDS011;63741;42.624;26.276;2022-12-18T07:13:24;4.70;;;2.90;;
74957;SDS011;63741;42.624;26.276;2022-12-18T07:15:51;5.25;;;3.08;;
74957;SDS011;63741;42.624;26.276;2022-12-18T07:18:18;4.10;;;2.60;;
74957;SDS011;63741;42.624;26.276;2022-12-18T07:20:45;7.30;;;3.20;;
74957;SDS011;63741;42.624;26.276;2022-12-18T07:23:13;4.85;;;2.80;;
74957;SDS011;63741;42.624;26.276;2022-12-18T07:25:40;3.42;;;2.30;;
74957;SDS011;63741;42.624;26.276;2022-12-18T07:28:07;5.05;;;3.15;;
74957;SDS011;63741;42.624;26.276;2022-12-18T07:30:40;5.88;;;3.55;;
74957;SDS011;63741;42.624;26.276;2022-12-18T07:33:07;5.68;;;3.15;;
74957;SDS011;63741;42.624;26.276;2022-12-18T07:35:34;3.75;;;2.35;;
74957;SDS011;63741;42.624;26.276;2022-12-18T07:38:03;3.95;;;2.35;;
74957;SDS011;63741;42.624;26.276;2022-12-18T07:40:29;4.15;;;2.90;;
74957;SDS011;63741;42.624;26.276;2022-12-18T07:42:56;4.07;;;2.72;;
74957;SDS011;63741;42.624;26.276;2022-12-18T07:45:23;5.15;;;3.08;;
74957;SDS011;63741;42.624;26.276;2022-12-18T07:47:50;4.75;;;2.88;;
74957;SDS011;63741;42.624;26.276;2022-12-18T07:50:17;3.38;;;2.30;;
74957;SDS011;63741;42.624;26.276;2022-12-18T07:52:44;4.47;;;3.00;;
74957;SDS011;63741;42.624;26.276;2022-12-18T07:55:11;5.32;;;3.42;;
74957;SDS011;63741;42.624;26.276;2022-12-18T07:57:41;7.22;;;3.83;;
74957;SDS011;63741;42.624;26.276;2022-12-18T08:00:20;4.05;;;2.75;;
74957;SDS011;63741;42.624;26.276;2022-12-18T08:02:47;4.43;;;3.30;;
74957;SDS011;63741;42.624;26.276;2022-12-18T08:05:15;6.10;;;3.25;;
74957;SDS011;63741;42.624;26.276;2022-12-18T08:07:41;4.30;;;2.90;;
74957;SDS011;63741;42.624;26.276;2022-12-18T08:10:08;6.22;;;3.20;;
74957;SDS011;63741;42.624;26.276;2022-12-18T08:12:35;5.00;;;2.85;;
74957;SDS011;63741;42.624;26.276;2022-12-18T08:15:02;6.22;;;3.53;;
74957;SDS011;63741;42.624;26.276;2022-12-18T08:17:30;5.95;;;4.13;;
74957;SDS011;63741;42.624;26.276;2022-12-18T08:19:57;6.63;;;3.83;;
74957;SDS011;63741;42.624;26.276;2022-12-18T08:22:24;7.63;;;3.80;;
74957;SDS011;63741;42.624;26.276;2022-12-18T08:24:51;7.97;;;4.60;;
74957;SDS011;63741;42.624;26.276;2022-12-18T08:27:18;7.68;;;4.50;;
74957;SDS011;63741;42.624;26.276;2022-12-18T08:30:00;8.63;;;4.22;;
74957;SDS011;63741;42.624;26.276;2022-12-18T08:32:27;7.10;;;4.03;;
74957;SDS011;63741;42.624;26.276;2022-12-18T08:34:54;10.98;;;5.72;;
74957;SDS011;63741;42.624;26.276;2022-12-18T08:37:21;6.15;;;4.07;;
74957;SDS011;63741;42.624;26.276;2022-12-18T08:39:48;7.38;;;4.75;;
74957;SDS011;63741;42.624;26.276;2022-12-18T08:42:15;6.97;;;5.00;;
74957;SDS011;63741;42.624;26.276;2022-12-18T08:45:01;46.45;;;28.13;;
74957;SDS011;63741;42.624;26.276;2022-12-18T08:47:29;33.88;;;19.45;;
74957;SDS011;63741;42.624;26.276;2022-12-18T08:49:56;9.68;;;5.85;;
74957;SDS011;63741;42.624;26.276;2022-12-18T08:52:22;12.63;;;8.50;;
74957;SDS011;63741;42.624;26.276;2022-12-18T08:54:49;8.85;;;5.18;;
74957;SDS011;63741;42.624;26.276;2022-12-18T08:57:16;8.10;;;4.88;;
74957;SDS011;63741;42.624;26.276;2022-12-18T08:59:43;8.48;;;4.88;;
74957;SDS011;63741;42.624;26.276;2022-12-18T09:02:10;9.68;;;4.35;;
74957;SDS011;63741;42.624;26.276;2022-12-18T09:04:38;40.55;;;20.20;;
74957;SDS011;63741;42.624;26.276;2022-12-18T09:07:06;15.05;;;9.05;;
74957;SDS011;63741;42.624;26.276;2022-12-18T09:09:33;6.65;;;4.05;;
74957;SDS011;63741;42.624;26.276;2022-12-18T09:12:00;7.25;;;4.00;;
74957;SDS011;63741;42.624;26.276;2022-12-18T09:14:27;13.32;;;8.77;;
74957;SDS011;63741;42.624;26.276;2022-12-18T09:16:54;39.55;;;20.23;;
74957;SDS011;63741;42.624;26.276;2022-12-18T09:19:21;41.85;;;19.25;;
74957;SDS011;63741;42.624;26.276;2022-12-18T09:21:48;23.30;;;11.15;;
74957;SDS011;63741;42.624;26.276;2022-12-18T09:24:15;14.80;;;8.15;;
74957;SDS011;63741;42.624;26.276;2022-12-18T09:26:42;20.02;;;8.23;;
74957;SDS011;63741;42.624;26.276;2022-12-18T09:29:13;16.23;;;7.85;;
74957;SDS011;63741;42.624;26.276;2022-12-18T09:31:42;14.63;;;8.30;;
74957;SDS011;63741;42.624;26.276;2022-12-18T09:34:09;13.82;;;8.30;;
74957;SDS011;63741;42.624;26.276;2022-12-18T09:36:36;9.60;;;5.95;;
74957;SDS011;63741;42.624;26.276;2022-12-18T09:39:03;10.15;;;5.57;;
74957;SDS011;63741;42.624;26.276;2022-12-18T09:44:16;8.40;;;5.60;;
74957;SDS011;63741;42.624;26.276;2022-12-18T09:46:53;9.38;;;6.38;;
74957;SDS011;63741;42.624;26.276;2022-12-18T09:49:26;13.40;;;6.85;;
74957;SDS011;63741;42.624;26.276;2022-12-18T09:52:02;12.20;;;6.47;;
74957;SDS011;63741;42.624;26.276;2022-12-18T09:54:43;9.35;;;5.70;;
74957;SDS011;63741;42.624;26.276;2022-12-18T09:57:18;9.73;;;4.88;;
74957;SDS011;63741;42.624;26.276;2022-12-18T09:59:55;12.05;;;6.97;;
74957;SDS011;63741;42.624;26.276;2022-12-18T10:02:26;10.82;;;6.20;;
74957;SDS011;63741;42.624;26.276;2022-12-18T10:10:34;8.30;;;5.15;;
74957;SDS011;63741;42.624;26.276;2022-12-18T10:13:13;6.82;;;4.40;;
74957;SDS011;63741;42.624;26.276;2022-12-18T10:16:15;8.27;;;5.38;;
74957;SDS011;63741;42.624;26.276;2022-12-18T10:21:47;12.18;;;7.85;;
74957;SDS011;63741;42.624;26.276;2022-12-18T10:27:24;10.43;;;6.57;;
74957;SDS011;63741;42.624;26.276;2022-12-18T10:29:52;12.10;;;7.03;;
74957;SDS011;63741;42.624;26.276;2022-12-18T10:32:24;9.18;;;6.20;;
74957;SDS011;63741;42.624;26.276;2022-12-18T10:34:54;11.13;;;6.38;;
74957;SDS011;63741;42.624;26.276;2022-12-18T10:37:27;9.80;;;5.55;;
74957;SDS011;63741;42.624;26.276;2022-12-18T10:43:02;8.27;;;5.22;;
74957;SDS011;63741;42.624;26.276;2022-12-18T10:45:38;8.75;;;5.10;;
74957;SDS011;63741;42.624;26.276;2022-12-18T10:48:21;24.65;;;12.48;;
74957;SDS011;63741;42.624;26.276;2022-12-18T10:50:49;56.17;;;25.10;;
74957;SDS011;63741;42.624;26.276;2022-12-18T10:53:37;49.58;;;22.67;;
74957;SDS011;63741;42.624;26.276;2022-12-18T10:56:08;70.63;;;32.20;;
74957;SDS011;63741;42.624;26.276;2022-12-18T10:58:36;12.88;;;7.43;;
74957;SDS011;63741;42.624;26.276;2022-12-18T11:03:59;11.02;;;6.32;;
74957;SDS011;63741;42.624;26.276;2022-12-18T11:06:28;11.27;;;6.63;;
74957;SDS011;63741;42.624;26.276;2022-12-18T11:08:59;11.48;;;6.53;;
74957;SDS011;63741;42.624;26.276;2022-12-18T11:11:39;8.90;;;5.25;;
74957;SDS011;63741;42.624;26.276;2022-12-18T11:14:16;9.60;;;5.88;;
74957;SDS011;63741;42.624;26.276;2022-12-18T11:16:48;9.38;;;5.47;;
74957;SDS011;63741;42.624;26.276;2022-12-18T11:19:37;10.55;;;5.97;;
74957;SDS011;63741;42.624;26.276;2022-12-18T11:22:25;9.13;;;5.07;;
74957;SDS011;63741;42.624;26.276;2022-12-18T11:25:02;9.00;;;5.53;;
74957;SDS011;63741;42.624;26.276;2022-12-18T11:28:00;8.90;;;5.22;;
74957;SDS011;63741;42.624;26.276;2022-12-18T11:30:30;9.45;;;6.00;;
74957;SDS011;63741;42.624;26.276;2022-12-18T11:40:59;7.85;;;4.45;;
74957;SDS011;63741;42.624;26.276;2022-12-18T11:44:13;7.82;;;4.72;;
74957;SDS011;63741;42.624;26.276;2022-12-18T11:46:48;8.20;;;4.72;;
74957;SDS011;63741;42.624;26.276;2022-12-18T11:49:22;10.98;;;5.40;;
74957;SDS011;63741;42.624;26.276;2022-12-18T11:51:55;10.20;;;5.80;;
74957;SDS011;63741;42.624;26.276;2022-12-18T11:54:29;6.55;;;4.22;;
74957;SDS011;63741;42.624;26.276;2022-12-18T11:57:10;8.13;;;5.40;;
74957;SDS011;63741;42.624;26.276;2022-12-18T12:14:16;15.40;;;8.57;;
74957;SDS011;63741;42.624;26.276;2022-12-18T12:24:57;23.40;;;11.88;;
74957;SDS011;63741;42.624;26.276;2022-12-18T12:27:37;24.02;;;11.15;;
74957;SDS011;63741;42.624;26.276;2022-12-18T12:38:25;13.50;;;7.75;;
74957;SDS011;63741;42.624;26.276;2022-12-18T12:41:01;13.30;;;8.40;;
74957;SDS011;63741;42.624;26.276;2022-12-18T12:43:55;13.20;;;7.97;;
74957;SDS011;63741;42.624;26.276;2022-12-18T12:46:26;11.73;;;7.63;;
74957;SDS011;63741;42.624;26.276;2022-12-18T12:48:58;14.60;;;8.32;;
74957;SDS011;63741;42.624;26.276;2022-12-18T12:51:30;11.98;;;7.68;;
74957;SDS011;63741;42.624;26.276;2022-12-18T12:54:01;12.93;;;8.15;;
74957;SDS011;63741;42.624;26.276;2022-12-18T12:56:44;13.20;;;7.65;;
74957;SDS011;63741;42.624;26.276;2022-12-18T12:59:22;13.50;;;8.00;;
74957;SDS011;63741;42.624;26.276;2022-12-18T13:02:02;16.88;;;10.55;;
74957;SDS011;63741;42.624;26.276;2022-12-18T13:07:06;28.83;;;18.90;;
74957;SDS011;63741;42.624;26.276;2022-12-18T13:10:11;28.42;;;16.63;;
74957;SDS011;63741;42.624;26.276;2022-12-18T13:13:11;23.55;;;14.15;;
74957;SDS011;63741;42.624;26.276;2022-12-18T13:16:04;13.57;;;8.80;;
74957;SDS011;63741;42.624;26.276;2022-12-18T13:18:32;20.13;;;12.35;;
74957;SDS011;63741;42.624;26.276;2022-12-18T13:26:00;14.55;;;8.43;;
74957;SDS011;63741;42.624;26.276;2022-12-18T13:28:54;14.25;;;8.55;;
74957;SDS011;63741;42.624;26.276;2022-12-18T13:34:16;15.95;;;9.07;;
74957;SDS011;63741;42.624;26.276;2022-12-18T13:48:27;13.30;;;8.05;;
74957;SDS011;63741;42.624;26.276;2022-12-18T13:51:05;19.10;;;11.65;;
74957;SDS011;63741;42.624;26.276;2022-12-18T13:53:44;19.50;;;11.65;;
74957;SDS011;63741;42.624;26.276;2022-12-18T13:56:16;35.30;;;18.27;;
74957;SDS011;63741;42.624;26.276;2022-12-18T13:58:43;13.20;;;7.50;;
74957;SDS011;63741;42.624;26.276;2022-12-18T14:01:23;12.77;;;8.45;;
74957;SDS011;63741;42.624;26.276;2022-12-18T14:03:51;15.45;;;9.57;;
74957;SDS011;63741;42.624;26.276;2022-12-18T14:06:31;15.88;;;9.48;;
74957;SDS011;63741;42.624;26.276;2022-12-18T14:08:58;15.88;;;10.02;;
74957;SDS011;63741;42.624;26.276;2022-12-18T14:11:26;20.30;;;12.38;;
74957;SDS011;63741;42.624;26.276;2022-12-18T14:13:54;18.50;;;10.63;;
74957;SDS011;63741;42.624;26.276;2022-12-18T14:16:21;16.70;;;10.20;;
74957;SDS011;63741;42.624;26.276;2022-12-18T14:18:51;19.25;;;11.93;;
74957;SDS011;63741;42.624;26.276;2022-12-18T14:21:31;46.13;;;24.08;;
74957;SDS011;63741;42.624;26.276;2022-12-18T14:24:15;42.20;;;24.45;;
74957;SDS011;63741;42.624;26.276;2022-12-18T14:26:45;38.88;;;21.83;;
74957;SDS011;63741;42.624;26.276;2022-12-18T14:34:44;17.48;;;10.30;;
74957;SDS011;63741;42.624;26.276;2022-12-18T14:39:59;16.95;;;9.50;;
74957;SDS011;63741;42.624;26.276;2022-12-18T14:51:02;20.75;;;12.55;;
74957;SDS011;63741;42.624;26.276;2022-12-18T14:56:02;18.65;;;11.23;;
74957;SDS011;63741;42.624;26.276;2022-12-18T14:58:38;20.15;;;11.40;;
74957;SDS011;63741;42.624;26.276;2022-12-18T15:01:05;21.38;;;10.88;;
74957;SDS011;63741;42.624;26.276;2022-12-18T15:03:33;19.55;;;11.57;;
74957;SDS011;63741;42.624;26.276;2022-12-18T15:08:57;19.67;;;11.07;;
74957;SDS011;63741;42.624;26.276;2022-12-18T15:11:26;19.20;;;10.93;;
74957;SDS011;63741;42.624;26.276;2022-12-18T15:13:53;19.13;;;10.90;;
74957;SDS011;63741;42.624;26.276;2022-12-18T15:16:20;18.27;;;10.45;;
74957;SDS011;63741;42.624;26.276;2022-12-18T15:18:47;19.50;;;10.82;;
74957;SDS011;63741;42.624;26.276;2022-12-18T15:21:18;43.08;;;24.02;;
74957;SDS011;63741;42.624;26.276;2022-12-18T15:23:48;31.70;;;18.85;;
74957;SDS011;63741;42.624;26.276;2022-12-18T15:26:18;40.33;;;21.38;;
74957;SDS011;63741;42.624;26.276;2022-12-18T15:28:47;21.20;;;13.40;;
74957;SDS011;63741;42.624;26.276;2022-12-18T15:36:45;40.05;;;21.88;;
74957;SDS011;63741;42.624;26.276;2022-12-18T15:39:12;41.33;;;19.20;;
74957;SDS011;63741;42.624;26.276;2022-12-18T15:41:39;50.95;;;28.05;;
74957;SDS011;63741;42.624;26.276;2022-12-18T15:44:21;30.70;;;16.55;;
74957;SDS011;63741;42.624;26.276;2022-12-18T15:46:49;22.83;;;13.23;;
74957;SDS011;63741;42.624;26.276;2022-12-18T15:49:16;24.08;;;13.82;;
74957;SDS011;63741;42.624;26.276;2022-12-18T15:51:43;33.83;;;17.85;;
74957;SDS011;63741;42.624;26.276;2022-12-18T15:54:13;24.00;;;13.38;;
74957;SDS011;63741;42.624;26.276;2022-12-18T15:56:42;24.92;;;14.68;;
74957;SDS011;63741;42.624;26.276;2022-12-18T15:59:27;38.55;;;20.23;;
74957;SDS011;63741;42.624;26.276;2022-12-18T16:01:56;28.15;;;14.93;;
74957;SDS011;63741;42.624;26.276;2022-12-18T16:04:23;22.67;;;13.02;;
74957;SDS011;63741;42.624;26.276;2022-12-18T16:06:51;32.10;;;16.98;;
74957;SDS011;63741;42.624;26.276;2022-12-18T16:09:40;32.25;;;16.73;;
74957;SDS011;63741;42.624;26.276;2022-12-18T16:12:11;27.75;;;16.23;;
74957;SDS011;63741;42.624;26.276;2022-12-18T16:14:45;33.25;;;18.08;;
74957;SDS011;63741;42.624;26.276;2022-12-18T16:17:13;38.22;;;22.15;;
74957;SDS011;63741;42.624;26.276;2022-12-18T16:19:40;33.05;;;19.77;;
74957;SDS011;63741;42.624;26.276;2022-12-18T16:22:18;21.17;;;12.93;;
74957;SDS011;63741;42.624;26.276;2022-12-18T16:24:50;31.73;;;19.88;;
74957;SDS011;63741;42.624;26.276;2022-12-18T16:27:18;20.27;;;12.68;;
74957;SDS011;63741;42.624;26.276;2022-12-18T16:29:46;28.75;;;15.15;;
74957;SDS011;63741;42.624;26.276;2022-12-18T16:32:14;39.17;;;19.00;;
74957;SDS011;63741;42.624;26.276;2022-12-18T16:34:42;28.77;;;15.20;;
74957;SDS011;63741;42.624;26.276;2022-12-18T16:37:10;18.60;;;11.55;;
74957;SDS011;63741;42.624;26.276;2022-12-18T16:39:39;43.92;;;20.02;;
74957;SDS011;63741;42.624;26.276;2022-12-18T16:42:16;22.80;;;13.30;;
74957;SDS011;63741;42.624;26.276;2022-12-18T16:44:46;22.55;;;12.73;;
74957;SDS011;63741;42.624;26.276;2022-12-18T16:47:14;36.03;;;17.52;;
74957;SDS011;63741;42.624;26.276;2022-12-18T16:49:42;36.03;;;18.70;;
74957;SDS011;63741;42.624;26.276;2022-12-18T16:52:11;41.70;;;21.08;;
74957;SDS011;63741;42.624;26.276;2022-12-18T16:54:39;35.35;;;21.15;;
74957;SDS011;63741;42.624;26.276;2022-12-18T16:57:06;36.67;;;19.85;;
74957;SDS011;63741;42.624;26.276;2022-12-18T16:59:33;43.70;;;20.67;;
74957;SDS011;63741;42.624;26.276;2022-12-18T17:01:59;25.25;;;14.73;;
74957;SDS011;63741;42.624;26.276;2022-12-18T17:04:27;20.48;;;12.43;;